Terminal Aerodrome Forecast
Issued by NWS Duluth, MN

Home | Current Version | Previous Version | Text Only | Print | Product List | Glossary On
Versions: 1 2 3 4 5 6 7 8 9 10 11 12 13 14 15 16 17 18 19 20
194
FTUS43 KDLH 081152
TAFINL
TAF
KINL 081152Z 0812/0912 32012G22KT 5SM -SN BLSN SCT025 OVC040
      TEMPO 0812/0816 2SM -SN BLSN BKN025
     FM082200 33012G20KT P6SM BKN025
     FM090600 34012KT P6SM SCT025=

USA.gov is the U.S. government's official web portal to all federal, state and local government web resources and services.